Time,TemperatureF,DewpointF,PressureIn,WindDirection,WindDirectionDegrees,WindSpeedMPH,WindSpeedGustMPH,Humidity,HourlyPrecipIn,Conditions,Clouds,dailyrainin,SoftwareType,DateUTC
2013-02-22 00:00:00,66.2,63.2,30.04,SE,135,0.0,2.0,90,0.00,,SKC,0.00,VWS V14.01,2013-02-22 05:00:00,
2013-02-22 00:05:00,66.1,63.1,30.03,ESE,117,0.0,1.0,90,0.00,,SKC,0.00,VWS V14.01,2013-02-22 05:05:00,
2013-02-22 00:10:00,66.0,63.0,30.03,ESE,118,0.0,1.0,90,0.00,,SKC,0.00,VWS V14.01,2013-02-22 05:10:00,
2013-02-22 00:15:00,65.9,62.9,30.03,East,98,0.0,1.0,90,0.00,,SKC,0.00,VWS V14.01,2013-02-22 05:15:00,
2013-02-22 00:20:00,65.7,62.7,30.03,ESE,107,0.0,1.0,90,0.00,,SKC,0.00,VWS V14.01,2013-02-22 05:20:00,
2013-02-22 00:25:00,65.6,62.6,30.02,ESE,121,0.0,1.0,90,0.00,,SKC,0.00,VWS V14.01,2013-02-22 05:25:00,
2013-02-22 00:30:00,65.6,62.9,30.02,ESE,117,0.0,3.0,91,0.00,,SKC,0.00,VWS V14.01,2013-02-22 05:30:00,
2013-02-22 00:35:00,65.6,62.9,30.02,ESE,123,0.0,2.0,91,0.00,,SKC,0.00,VWS V14.01,2013-02-22 05:35:00,
2013-02-22 00:40:00,65.5,62.8,30.02,SE,134,2.0,3.0,91,0.00,,SKC,0.00,VWS V14.01,2013-02-22 05:40:00,
2013-02-22 00:45:00,65.5,62.8,30.02,ESE,116,2.0,3.0,91,0.00,,SKC,0.00,VWS V14.01,2013-02-22 05:45:00,
2013-02-22 00:50:00,65.5,62.8,30.02,East,90,0.0,3.0,91,0.00,,SKC,0.00,VWS V14.01,2013-02-22 05:50:00,
2013-02-22 00:55:00,65.5,62.8,30.02,East,99,1.0,4.0,91,0.00,,SKC,0.00,VWS V14.01,2013-02-22 05:55:00,
2013-02-22 01:00:00,65.4,62.7,30.02,East,94,0.0,4.0,91,0.00,,SKC,0.00,VWS V14.01,2013-02-22 06:00:00,
2013-02-22 01:05:00,65.4,62.7,30.02,East,88,1.0,5.0,91,0.00,,SKC,0.00,VWS V14.01,2013-02-22 06:05:00,
2013-02-22 01:10:00,65.3,62.6,30.02,East,99,1.0,5.0,91,0.00,,SKC,0.00,VWS V14.01,2013-02-22 06:10:00,
2013-02-22 01:15:00,65.3,62.6,30.02,East,98,0.0,5.0,91,0.00,,SKC,0.00,VWS V14.01,2013-02-22 06:15:00,
2013-02-22 01:20:00,65.2,62.5,30.02,ESE,115,2.0,5.0,91,0.00,,SKC,0.00,VWS V14.01,2013-02-22 06:20:00,
2013-02-22 01:25:00,65.1,62.4,30.02,East,86,0.0,5.0,91,0.00,,SKC,0.00,VWS V14.01,2013-02-22 06:25:00,
2013-02-22 01:30:00,65.1,62.7,30.02,ESE,102,0.0,5.0,92,0.00,,SKC,0.00,VWS V14.01,2013-02-22 06:30:00,
2013-02-22 01:35:00,64.9,62.5,30.02,ENE,76,1.0,1.0,92,0.00,,SKC,0.00,VWS V14.01,2013-02-22 06:35:00,
2013-02-22 01:40:00,64.9,62.5,30.02,East,84,1.0,2.0,92,0.00,,SKC,0.00,VWS V14.01,2013-02-22 06:40:00,
2013-02-22 01:45:00,64.9,62.5,30.01,ENE,78,0.0,2.0,92,0.00,,SKC,0.00,VWS V14.01,2013-02-22 06:45:00,
2013-02-22 01:50:00,64.7,62.3,30.02,ENE,78,0.0,2.0,92,0.00,,SKC,0.00,VWS V14.01,2013-02-22 06:50:00,
2013-02-22 01:55:00,64.5,62.1,30.02,ENE,78,0.0,2.0,92,0.00,,SKC,0.00,VWS V14.01,2013-02-22 06:55:00,
2013-02-22 02:00:00,64.5,62.4,30.02,ENE,78,0.0,2.0,93,0.00,,SKC,0.00,VWS V14.01,2013-02-22 07:00:00,
2013-02-22 02:05:00,64.4,62.3,30.02,ENE,78,0.0,0.0,93,0.00,,SKC,0.00,VWS V14.01,2013-02-22 07:05:00,
2013-02-22 02:10:00,64.4,62.3,30.01,East,83,0.0,1.0,93,0.00,,SKC,0.00,VWS V14.01,2013-02-22 07:10:00,
2013-02-22 02:15:00,64.3,62.2,30.01,East,96,0.0,1.0,93,0.00,,SKC,0.00,VWS V14.01,2013-02-22 07:15:00,
2013-02-22 02:20:00,64.4,62.3,30.01,ESE,103,0.0,1.0,93,0.00,,SKC,0.00,VWS V14.01,2013-02-22 07:20:00,
2013-02-22 02:25:00,64.4,62.3,30.01,East,94,0.0,1.0,93,0.00,,SKC,0.00,VWS V14.01,2013-02-22 07:25:00,
2013-02-22 02:30:00,64.3,62.2,30.01,ESE,121,0.0,2.0,93,0.00,,SKC,0.00,VWS V14.01,2013-02-22 07:30:00,
2013-02-22 02:35:00,64.3,62.2,30.01,ESE,115,0.0,1.0,93,0.00,,SKC,0.00,VWS V14.01,2013-02-22 07:35:00,
2013-02-22 02:40:00,64.4,62.6,30.01,ESE,118,1.0,2.0,94,0.00,,SKC,0.00,VWS V14.01,2013-02-22 07:40:00,
2013-02-22 02:45:00,64.4,62.6,30.01,ESE,113,1.0,3.0,94,0.00,,SKC,0.00,VWS V14.01,2013-02-22 07:45:00,
2013-02-22 02:50:00,64.4,62.6,30.00,SE,139,1.0,3.0,94,0.00,,SKC,0.00,VWS V14.01,2013-02-22 07:50:00,
2013-02-22 02:55:00,64.3,62.5,30.00,East,100,1.0,4.0,94,0.00,,SKC,0.00,VWS V14.01,2013-02-22 07:55:00,
2013-02-22 03:00:00,64.3,62.5,30.00,SE,127,1.0,4.0,94,0.00,,SKC,0.00,VWS V14.01,2013-02-22 08:00:00,
2013-02-22 03:05:00,64.3,62.5,30.00,SE,132,0.0,3.0,94,0.00,,SKC,0.00,VWS V14.01,2013-02-22 08:05:00,
2013-02-22 03:10:00,64.2,62.4,30.00,ESE,107,1.0,3.0,94,0.00,,SKC,0.00,VWS V14.01,2013-02-22 08:10:00,
2013-02-22 03:15:00,64.2,62.4,30.00,East,83,0.0,3.0,94,0.00,,SKC,0.00,VWS V14.01,2013-02-22 08:15:00,
2013-02-22 03:20:00,64.2,62.4,30.00,East,97,2.0,4.0,94,0.00,,SKC,0.00,VWS V14.01,2013-02-22 08:20:00,
2013-02-22 03:25:00,64.2,62.4,30.00,ENE,73,2.0,4.0,94,0.00,,SKC,0.00,VWS V14.01,2013-02-22 08:25:00,
2013-02-22 03:30:00,64.2,62.4,30.00,ESE,111,1.0,5.0,94,0.00,,SKC,0.00,VWS V14.01,2013-02-22 08:30:00,
2013-02-22 03:35:00,64.2,62.4,30.00,East,98,1.0,4.0,94,0.00,,SKC,0.00,VWS V14.01,2013-02-22 08:35:00,
2013-02-22 03:40:00,64.2,62.4,30.00,ESE,112,0.0,4.0,94,0.00,,SKC,0.00,VWS V14.01,2013-02-22 08:40:00,
2013-02-22 03:45:00,64.1,62.3,30.00,ESE,117,0.0,4.0,94,0.00,,SKC,0.00,VWS V14.01,2013-02-22 08:45:00,
2013-02-22 03:50:00,64.1,62.3,30.00,SE,139,0.0,4.0,94,0.00,,SKC,0.00,VWS V14.01,2013-02-22 08:50:00,
2013-02-22 03:55:00,64.1,62.3,30.01,ESE,102,0.0,4.0,94,0.00,,SKC,0.00,VWS V14.01,2013-02-22 08:55:00,
2013-02-22 04:00:00,63.9,62.1,30.01,East,98,0.0,4.0,94,0.00,,SKC,0.00,VWS V14.01,2013-02-22 09:00:00,
2013-02-22 04:05:00,63.9,62.4,30.01,East,88,0.0,0.0,95,0.00,,SKC,0.00,VWS V14.01,2013-02-22 09:05:00,
2013-02-22 04:10:00,63.8,62.0,30.01,ESE,102,0.0,0.0,94,0.00,,SKC,0.00,VWS V14.01,2013-02-22 09:10:00,
2013-02-22 04:15:00,63.8,62.3,30.01,ESE,102,0.0,0.0,95,0.00,,SKC,0.00,VWS V14.01,2013-02-22 09:15:00,
2013-02-22 04:20:00,63.7,62.2,30.01,ESE,117,0.0,0.0,95,0.00,,SKC,0.00,VWS V14.01,2013-02-22 09:20:00,
2013-02-22 04:25:00,63.7,62.2,30.01,East,84,0.0,0.0,95,0.00,,SKC,0.00,VWS V14.01,2013-02-22 09:25:00,
2013-02-22 04:30:00,63.7,62.2,30.01,East,92,0.0,0.0,95,0.00,,SKC,0.00,VWS V14.01,2013-02-22 09:30:00,
2013-02-22 04:35:00,63.6,62.2,30.01,East,92,0.0,0.0,95,0.00,,SKC,0.00,VWS V14.01,2013-02-22 09:35:00,
2013-02-22 04:40:00,63.6,62.2,30.01,East,92,0.0,0.0,95,0.00,,SKC,0.00,VWS V14.01,2013-02-22 09:40:00,
2013-02-22 04:45:00,63.6,62.2,30.01,East,92,0.0,0.0,95,0.00,,SKC,0.00,VWS V14.01,2013-02-22 09:45:00,
2013-02-22 04:50:00,63.6,62.2,30.01,East,96,0.0,0.0,95,0.00,,SKC,0.00,VWS V14.01,2013-02-22 09:50:00,
2013-02-22 04:55:00,63.6,62.2,30.01,ESE,115,0.0,0.0,95,0.00,,SKC,0.00,VWS V14.01,2013-02-22 09:55:00,
2013-02-22 05:00:00,63.6,62.2,30.02,ESE,110,0.0,0.0,95,0.00,,SKC,0.00,VWS V14.01,2013-02-22 10:00:00,
2013-02-22 05:05:00,63.7,62.2,30.01,ESE,103,0.0,0.0,95,0.00,,SKC,0.00,VWS V14.01,2013-02-22 10:05:00,
2013-02-22 05:10:00,63.6,62.2,30.02,East,92,0.0,0.0,95,0.00,,SKC,0.00,VWS V14.01,2013-02-22 10:10:00,
2013-02-22 05:15:00,63.6,62.2,30.02,ESE,103,0.0,0.0,95,0.00,,SKC,0.00,VWS V14.01,2013-02-22 10:15:00,
2013-02-22 05:20:00,63.5,62.0,30.02,ESE,120,0.0,0.0,95,0.00,,SKC,0.00,VWS V14.01,2013-02-22 10:20:00,
2013-02-22 05:25:00,63.5,62.0,30.02,SE,138,0.0,0.0,95,0.00,,SKC,0.00,VWS V14.01,2013-02-22 10:25:00,
2013-02-22 05:30:00,63.4,62.0,30.02,ESE,119,0.0,0.0,95,0.00,,SKC,0.00,VWS V14.01,2013-02-22 10:30:00,
2013-02-22 05:35:00,63.5,62.0,30.02,SE,124,0.0,0.0,95,0.00,,SKC,0.00,VWS V14.01,2013-02-22 10:35:00,
2013-02-22 05:40:00,63.5,62.0,30.02,ESE,119,0.0,0.0,95,0.00,,SKC,0.00,VWS V14.01,2013-02-22 10:40:00,
2013-02-22 05:45:00,63.6,62.2,30.02,ESE,109,0.0,0.0,95,0.00,,SKC,0.00,VWS V14.01,2013-02-22 10:45:00,
2013-02-22 05:50:00,63.6,62.2,30.03,East,99,0.0,0.0,95,0.00,,SKC,0.00,VWS V14.01,2013-02-22 10:50:00,
2013-02-22 05:55:00,63.6,62.2,30.03,ESE,120,0.0,0.0,95,0.00,,SKC,0.00,VWS V14.01,2013-02-22 10:55:00,
2013-02-22 06:00:00,63.4,62.0,30.03,ESE,119,0.0,0.0,95,0.00,,SKC,0.00,VWS V14.01,2013-02-22 11:00:00,
2013-02-22 06:05:00,63.3,61.8,30.03,SE,127,0.0,0.0,95,0.00,,SKC,0.00,VWS V14.01,2013-02-22 11:05:00,
2013-02-22 06:10:00,63.3,61.8,30.04,SE,127,0.0,0.0,95,0.00,,SKC,0.00,VWS V14.01,2013-02-22 11:10:00,
2013-02-22 06:15:00,63.2,61.8,30.04,SE,127,0.0,0.0,95,0.00,,SKC,0.00,VWS V14.01,2013-02-22 11:15:00,
2013-02-22 06:20:00,63.1,61.7,30.04,ENE,57,0.0,0.0,95,0.00,,SKC,0.00,VWS V14.01,2013-02-22 11:20:00,
2013-02-22 06:25:00,63.0,61.5,30.04,ENE,58,0.0,0.0,95,0.00,,SKC,0.00,VWS V14.01,2013-02-22 11:25:00,
2013-02-22 06:30:00,63.0,61.5,30.05,ENE,58,0.0,0.0,95,0.00,,SKC,0.00,VWS V14.01,2013-02-22 11:30:00,
2013-02-22 06:35:00,63.0,61.5,30.05,NE,51,0.0,0.0,95,0.00,,SKC,0.00,VWS V14.01,2013-02-22 11:35:00,
2013-02-22 06:40:00,63.1,61.7,30.05,NE,46,0.0,0.0,95,0.00,,SKC,0.00,VWS V14.01,2013-02-22 11:40:00,
2013-02-22 06:45:00,63.2,62.0,30.05,NE,47,0.0,0.0,96,0.00,,SKC,0.00,VWS V14.01,2013-02-22 11:45:00,
2013-02-22 06:50:00,63.3,62.1,30.05,NE,44,1.0,2.0,96,0.00,,SKC,0.00,VWS V14.01,2013-02-22 11:50:00,
2013-02-22 06:55:00,63.4,62.2,30.05,NE,38,0.0,2.0,96,0.00,,SKC,0.00,VWS V14.01,2013-02-22 11:55:00,
2013-02-22 07:00:00,63.5,62.3,30.05,East,81,0.0,2.0,96,0.00,,SKC,0.00,VWS V14.01,2013-02-22 12:00:00,
2013-02-22 07:05:00,63.7,62.5,30.05,NE,46,0.0,2.0,96,0.00,,SKC,0.00,VWS V14.01,2013-02-22 12:05:00,
2013-02-22 07:10:00,63.9,62.7,30.06,ESE,109,0.0,4.0,96,0.00,,SKC,0.00,VWS V14.01,2013-02-22 12:10:00,
2013-02-22 07:15:00,64.1,62.9,30.06,ENE,69,0.0,4.0,96,0.00,,SKC,0.00,VWS V14.01,2013-02-22 12:15:00,
2013-02-22 07:20:00,64.3,63.1,30.06,NE,53,0.0,4.0,96,0.00,,SKC,0.00,VWS V14.01,2013-02-22 12:20:00,
2013-02-22 07:25:00,64.6,63.4,30.06,East,86,0.0,4.0,96,0.00,,SKC,0.00,VWS V14.01,2013-02-22 12:25:00,
2013-02-22 07:30:00,64.8,63.6,30.06,East,86,0.0,4.0,96,0.00,,SKC,0.00,VWS V14.01,2013-02-22 12:30:00,
2013-02-22 07:35:00,65.1,63.9,30.06,ENE,75,1.0,4.0,96,0.00,,SKC,0.00,VWS V14.01,2013-02-22 12:35:00,
2013-02-22 07:40:00,65.4,64.2,30.06,East,96,3.0,5.0,96,0.00,,SKC,0.00,VWS V14.01,2013-02-22 12:40:00,
2013-02-22 07:45:00,65.8,64.6,30.06,ENE,68,1.0,6.0,96,0.00,,SKC,0.00,VWS V14.01,2013-02-22 12:45:00,
2013-02-22 07:50:00,66.1,64.6,30.06,ESE,116,4.0,6.0,95,0.00,,SKC,0.00,VWS V14.01,2013-02-22 12:50:00,
2013-02-22 07:55:00,66.4,64.9,30.06,East,86,0.0,6.0,95,0.00,,SKC,0.00,VWS V14.01,2013-02-22 12:55:00,
2013-02-22 08:00:00,66.6,65.1,30.06,ESE,110,3.0,8.0,95,0.00,,SKC,0.00,VWS V14.01,2013-02-22 13:00:00,
2013-02-22 08:05:00,67.1,65.6,30.06,SE,134,1.0,7.0,95,0.00,,SKC,0.00,VWS V14.01,2013-02-22 13:05:00,
2013-02-22 08:10:00,67.6,66.1,30.06,ESE,123,4.0,7.0,95,0.00,,SKC,0.00,VWS V14.01,2013-02-22 13:10:00,
2013-02-22 08:15:00,68.2,66.7,30.07,ESE,119,1.0,7.0,95,0.00,,SKC,0.00,VWS V14.01,2013-02-22 13:15:00,
2013-02-22 08:20:00,68.6,67.1,30.07,ESE,117,8.0,8.0,95,0.00,,SKC,0.00,VWS V14.01,2013-02-22 13:20:00,
2013-02-22 08:25:00,69.0,67.5,30.07,ENE,74,4.0,8.0,95,0.00,,SKC,0.00,VWS V14.01,2013-02-22 13:25:00,
2013-02-22 08:30:00,69.5,67.7,30.07,ENE,65,4.0,8.0,94,0.00,,SKC,0.00,VWS V14.01,2013-02-22 13:30:00,
2013-02-22 08:35:00,70.1,68.3,30.07,SE,133,6.0,8.0,94,0.00,,SKC,0.00,VWS V14.01,2013-02-22 13:35:00,
2013-02-22 08:40:00,70.6,68.5,30.07,ENE,71,3.0,9.0,93,0.00,,SKC,0.00,VWS V14.01,2013-02-22 13:40:00,
2013-02-22 08:45:00,71.0,68.9,30.07,SE,134,5.0,11.0,93,0.00,,SKC,0.00,VWS V14.01,2013-02-22 13:45:00,
2013-02-22 08:50:00,71.5,69.1,30.07,East,86,6.0,12.0,92,0.00,,SKC,0.00,VWS V14.01,2013-02-22 13:50:00,
2013-02-22 08:55:00,71.8,69.0,30.07,SE,128,6.0,12.0,91,0.00,,SKC,0.00,VWS V14.01,2013-02-22 13:55:00,
2013-02-22 09:00:00,72.4,69.6,30.07,SE,137,5.0,12.0,91,0.00,,SKC,0.00,VWS V14.01,2013-02-22 14:00:00,
2013-02-22 09:05:00,72.7,69.6,30.07,SE,138,4.0,11.0,90,0.00,,SKC,0.00,VWS V14.01,2013-02-22 14:05:00,
2013-02-22 09:10:00,73.0,69.6,30.08,ESE,121,6.0,12.0,89,0.00,,SKC,0.00,VWS V14.01,2013-02-22 14:10:00,
2013-02-22 09:15:00,73.5,70.4,30.08,East,86,2.0,12.0,90,0.00,,SKC,0.00,VWS V14.01,2013-02-22 14:15:00,
2013-02-22 09:20:00,74.1,70.3,30.08,ESE,123,5.0,12.0,88,0.00,,SKC,0.00,VWS V14.01,2013-02-22 14:20:00,
2013-02-22 09:25:00,74.6,70.5,30.08,SE,128,9.0,13.0,87,0.00,,SKC,0.00,VWS V14.01,2013-02-22 14:25:00,
2013-02-22 09:30:00,75.0,70.5,30.07,ESE,120,10.0,13.0,86,0.00,,SKC,0.00,VWS V14.01,2013-02-22 14:30:00,
2013-02-22 09:35:00,75.4,70.9,30.08,East,100,5.0,11.0,86,0.00,,SKC,0.00,VWS V14.01,2013-02-22 14:35:00,
2013-02-22 09:40:00,75.6,70.4,30.07,SE,133,5.0,12.0,84,0.00,,SKC,0.00,VWS V14.01,2013-02-22 14:40:00,
2013-02-22 09:45:00,75.8,71.0,30.07,SE,142,4.0,12.0,85,0.00,,SKC,0.00,VWS V14.01,2013-02-22 14:45:00,
2013-02-22 09:50:00,76.6,71.1,30.07,ESE,105,10.0,12.0,83,0.00,,SKC,0.00,VWS V14.01,2013-02-22 14:50:00,
2013-02-22 09:55:00,76.4,70.9,30.07,ESE,123,6.0,15.0,83,0.00,,SKC,0.00,VWS V14.01,2013-02-22 14:55:00,
2013-02-22 10:00:00,76.4,70.5,30.07,East,101,7.0,19.0,82,0.00,,SKC,0.00,VWS V14.01,2013-02-22 15:00:00,
2013-02-22 10:05:00,76.7,70.8,30.07,SSE,148,5.0,14.0,82,0.00,,SKC,0.00,VWS V14.01,2013-02-22 15:05:00,
2013-02-22 10:10:00,77.2,70.9,30.07,SSE,168,9.0,15.0,81,0.00,,SKC,0.00,VWS V14.01,2013-02-22 15:10:00,
2013-02-22 10:15:00,77.9,70.9,30.07,ESE,117,12.0,16.0,79,0.00,,SKC,0.00,VWS V14.01,2013-02-22 15:15:00,
2013-02-22 10:20:00,78.3,70.9,30.07,SSE,159,6.0,16.0,78,0.00,,SKC,0.00,VWS V14.01,2013-02-22 15:20:00,
2013-02-22 10:25:00,78.3,70.5,30.07,SE,136,4.0,16.0,77,0.00,,SKC,0.00,VWS V14.01,2013-02-22 15:25:00,
2013-02-22 10:30:00,78.7,70.9,30.07,SE,140,7.0,16.0,77,0.00,,SKC,0.00,VWS V14.01,2013-02-22 15:30:00,
2013-02-22 10:35:00,78.8,70.6,30.07,SE,128,4.0,15.0,76,0.00,,SKC,0.00,VWS V14.01,2013-02-22 15:35:00,
2013-02-22 10:40:00,78.8,69.8,30.07,South,172,12.0,15.0,74,0.00,,SKC,0.00,VWS V14.01,2013-02-22 15:40:00,
2013-02-22 10:45:00,78.6,70.4,30.07,SE,134,5.0,15.0,76,0.00,,SKC,0.00,VWS V14.01,2013-02-22 15:45:00,
2013-02-22 10:50:00,79.0,70.0,30.07,SSW,202,9.0,15.0,74,0.00,,SKC,0.00,VWS V14.01,2013-02-22 15:50:00,
2013-02-22 10:55:00,79.5,70.1,30.06,SE,126,5.0,15.0,73,0.00,,SKC,0.00,VWS V14.01,2013-02-22 15:55:00,
2013-02-22 11:00:00,79.9,70.9,30.06,SSE,153,12.0,15.0,74,0.00,,SKC,0.00,VWS V14.01,2013-02-22 16:00:00,
2013-02-22 11:05:00,80.2,69.9,30.06,SE,139,6.0,14.0,71,0.00,,SKC,0.00,VWS V14.01,2013-02-22 16:05:00,
2013-02-22 11:10:00,80.7,70.4,30.06,East,98,7.0,14.0,71,0.00,,SKC,0.00,VWS V14.01,2013-02-22 16:10:00,
2013-02-22 11:15:00,81.0,69.9,30.06,SE,135,9.0,14.0,69,0.00,,SKC,0.00,VWS V14.01,2013-02-22 16:15:00,
2013-02-22 11:20:00,80.9,70.2,30.05,ESE,120,11.0,14.0,70,0.00,,SKC,0.00,VWS V14.01,2013-02-22 16:20:00,
2013-02-22 11:25:00,80.9,69.4,30.05,SSE,160,10.0,14.0,68,0.00,,SKC,0.00,VWS V14.01,2013-02-22 16:25:00,
2013-02-22 11:30:00,80.5,69.4,30.05,SSE,167,7.0,14.0,69,0.00,,SKC,0.00,VWS V14.01,2013-02-22 16:30:00,
2013-02-22 11:35:00,80.8,69.7,30.05,South,180,6.0,15.0,69,0.00,,SKC,0.00,VWS V14.01,2013-02-22 16:35:00,
2013-02-22 11:40:00,81.3,69.7,30.05,SSE,148,7.0,15.0,68,0.00,,SKC,0.00,VWS V14.01,2013-02-22 16:40:00,
2013-02-22 11:45:00,81.1,70.0,30.05,SSE,152,7.0,15.0,69,0.00,,SKC,0.00,VWS V14.01,2013-02-22 16:45:00,
2013-02-22 11:50:00,81.7,68.8,30.04,SSE,166,6.0,15.0,65,0.00,,SKC,0.00,VWS V14.01,2013-02-22 16:50:00,
2013-02-22 11:55:00,82.0,69.5,30.04,South,184,6.0,15.0,66,0.00,,SKC,0.00,VWS V14.01,2013-02-22 16:55:00,
2013-02-22 12:00:00,82.7,69.3,30.04,ESE,113,6.0,15.0,64,0.00,,SKC,0.00,VWS V14.01,2013-02-22 17:00:00,
2013-02-22 12:05:00,83.3,68.9,30.04,SSW,213,4.0,11.0,62,0.00,,SKC,0.00,VWS V14.01,2013-02-22 17:05:00,
2013-02-22 12:10:00,83.6,68.7,30.04,SSE,158,9.0,14.0,61,0.00,,SKC,0.00,VWS V14.01,2013-02-22 17:10:00,
2013-02-22 12:15:00,82.8,68.9,30.03,SE,128,4.0,14.0,63,0.00,,SKC,0.00,VWS V14.01,2013-02-22 17:15:00,
2013-02-22 12:20:00,83.0,69.1,30.03,SSE,165,6.0,14.0,63,0.00,,SKC,0.00,VWS V14.01,2013-02-22 17:20:00,
2013-02-22 12:25:00,83.8,68.9,30.03,SSW,207,7.0,14.0,61,0.00,,SKC,0.00,VWS V14.01,2013-02-22 17:25:00,
2013-02-22 12:30:00,84.3,68.9,30.03,ESE,117,7.0,14.0,60,0.00,,SKC,0.00,VWS V14.01,2013-02-22 17:30:00,
2013-02-22 12:35:00,84.5,68.6,30.03,South,188,4.0,11.0,59,0.00,,SKC,0.00,VWS V14.01,2013-02-22 17:35:00,
2013-02-22 12:40:00,84.6,68.7,30.02,SSE,153,9.0,11.0,59,0.00,,SKC,0.00,VWS V14.01,2013-02-22 17:40:00,
2013-02-22 12:45:00,84.2,68.3,30.02,SSE,163,7.0,11.0,59,0.00,,SKC,0.00,VWS V14.01,2013-02-22 17:45:00,
2013-02-22 12:50:00,84.3,68.4,30.02,SSW,209,4.0,14.0,59,0.00,,SKC,0.00,VWS V14.01,2013-02-22 17:50:00,
2013-02-22 12:55:00,84.5,68.1,30.02,ESE,115,8.0,14.0,58,0.00,,SKC,0.00,VWS V14.01,2013-02-22 17:55:00,
2013-02-22 13:00:00,84.4,68.0,30.02,SSW,211,11.0,14.0,58,0.00,,SKC,0.00,VWS V14.01,2013-02-22 18:00:00,
2013-02-22 13:05:00,84.8,67.9,30.01,ESE,107,8.0,11.0,57,0.00,,SKC,0.00,VWS V14.01,2013-02-22 18:05:00,
2013-02-22 13:10:00,84.7,66.8,30.01,SSE,155,4.0,11.0,55,0.00,,SKC,0.00,VWS V14.01,2013-02-22 18:10:00,
2013-02-22 13:15:00,84.6,68.7,30.01,South,182,11.0,15.0,59,0.00,,SKC,0.00,VWS V14.01,2013-02-22 18:15:00,
2013-02-22 13:20:00,84.7,67.8,30.01,East,92,6.0,15.0,57,0.00,,SKC,0.00,VWS V14.01,2013-02-22 18:20:00,
2013-02-22 13:25:00,84.8,68.4,30.00,SSW,195,2.0,15.0,58,0.00,,SKC,0.00,VWS V14.01,2013-02-22 18:25:00,
2013-02-22 13:30:00,85.2,68.8,30.00,SE,145,7.0,15.0,58,0.00,,SKC,0.00,VWS V14.01,2013-02-22 18:30:00,
2013-02-22 13:35:00,85.3,67.3,30.00,SE,141,6.0,10.0,55,0.00,,SKC,0.00,VWS V14.01,2013-02-22 18:35:00,
2013-02-22 13:40:00,85.3,67.8,29.99,SSE,167,10.0,11.0,56,0.00,,SKC,0.00,VWS V14.01,2013-02-22 18:40:00,
2013-02-22 13:45:00,85.1,67.7,29.99,SSW,199,4.0,13.0,56,0.00,,SKC,0.00,VWS V14.01,2013-02-22 18:45:00,
2013-02-22 13:50:00,85.4,67.9,29.99,SE,145,4.0,13.0,56,0.00,,SKC,0.00,VWS V14.01,2013-02-22 18:50:00,
2013-02-22 13:55:00,85.5,68.0,29.99,SE,138,2.0,13.0,56,0.00,,SKC,0.00,VWS V14.01,2013-02-22 18:55:00,
2013-02-22 14:00:00,86.3,68.2,29.99,SSE,149,4.0,13.0,55,0.00,,SKC,0.00,VWS V14.01,2013-02-22 19:00:00,
2013-02-22 14:05:00,86.2,68.2,29.99,South,182,7.0,11.0,55,0.00,,SKC,0.00,VWS V14.01,2013-02-22 19:05:00,
2013-02-22 14:10:00,85.8,68.8,29.99,SW,230,7.0,13.0,57,0.00,,SKC,0.00,VWS V14.01,2013-02-22 19:10:00,
2013-02-22 14:15:00,84.7,68.3,29.99,South,175,7.0,13.0,58,0.00,,SKC,0.00,VWS V14.01,2013-02-22 19:15:00,
2013-02-22 14:20:00,84.7,68.3,29.98,SSW,207,6.0,13.0,58,0.00,,SKC,0.00,VWS V14.01,2013-02-22 19:20:00,
2013-02-22 14:25:00,84.6,67.7,29.99,SW,234,9.0,13.0,57,0.00,,SKC,0.00,VWS V14.01,2013-02-22 19:25:00,
2013-02-22 14:30:00,84.6,69.2,29.98,SW,215,6.0,13.0,60,0.00,,SKC,0.00,VWS V14.01,2013-02-22 19:30:00,
2013-02-22 14:35:00,84.6,68.7,29.98,SSE,167,5.0,12.0,59,0.00,,SKC,0.00,VWS V14.01,2013-02-22 19:35:00,
2013-02-22 14:40:00,84.0,68.1,29.98,WSW,242,8.0,12.0,59,0.00,,SKC,0.00,VWS V14.01,2013-02-22 19:40:00,
2013-02-22 14:45:00,83.8,68.4,29.98,SE,138,3.0,12.0,60,0.00,,SKC,0.00,VWS V14.01,2013-02-22 19:45:00,
2013-02-22 14:50:00,83.9,69.0,29.98,SW,233,6.0,12.0,61,0.00,,SKC,0.00,VWS V14.01,2013-02-22 19:50:00,
2013-02-22 14:55:00,84.1,69.2,29.98,SSW,193,6.0,12.0,61,0.00,,SKC,0.00,VWS V14.01,2013-02-22 19:55:00,
2013-02-22 15:00:00,84.4,69.5,29.98,South,188,8.0,12.0,61,0.00,,SKC,0.00,VWS V14.01,2013-02-22 20:00:00,
2013-02-22 15:05:00,84.6,69.2,29.98,SSW,211,10.0,12.0,60,0.00,,SKC,0.00,VWS V14.01,2013-02-22 20:05:00,
2013-02-22 15:10:00,83.9,70.0,29.98,South,184,5.0,12.0,63,0.00,,SKC,0.00,VWS V14.01,2013-02-22 20:10:00,
2013-02-22 15:15:00,83.5,70.1,29.98,SSE,147,4.0,12.0,64,0.00,,SKC,0.00,VWS V14.01,2013-02-22 20:15:00,
2013-02-22 15:20:00,83.2,70.2,29.97,SW,226,11.0,13.0,65,0.00,,SKC,0.00,VWS V14.01,2013-02-22 20:20:00,
2013-02-22 15:25:00,82.8,69.8,29.98,WSW,240,7.0,14.0,65,0.00,,SKC,0.00,VWS V14.01,2013-02-22 20:25:00,
2013-02-22 15:30:00,82.7,69.8,29.97,SSW,198,4.0,14.0,65,0.00,,SKC,0.00,VWS V14.01,2013-02-22 20:30:00,
2013-02-22 15:35:00,82.4,69.9,29.97,SSW,213,4.0,13.0,66,0.00,,SKC,0.00,VWS V14.01,2013-02-22 20:35:00,
2013-02-22 15:40:00,82.7,70.2,29.97,South,178,11.0,13.0,66,0.00,,SKC,0.00,VWS V14.01,2013-02-22 20:40:00,
2013-02-22 15:45:00,82.8,70.3,29.97,South,179,4.0,13.0,66,0.00,,SKC,0.00,VWS V14.01,2013-02-22 20:45:00,
2013-02-22 15:50:00,82.6,69.7,29.97,SSW,203,6.0,13.0,65,0.00,,SKC,0.00,VWS V14.01,2013-02-22 20:50:00,
2013-02-22 15:55:00,82.6,70.1,29.97,WSW,244,11.0,13.0,66,0.00,,SKC,0.00,VWS V14.01,2013-02-22 20:55:00,
2013-02-22 16:00:00,82.2,69.7,29.97,SSW,213,11.0,13.0,66,0.00,,SKC,0.00,VWS V14.01,2013-02-22 21:00:00,
2013-02-22 16:05:00,82.3,70.3,29.97,South,190,1.0,9.0,67,0.00,,SKC,0.00,VWS V14.01,2013-02-22 21:05:00,
2013-02-22 16:10:00,82.0,69.5,29.97,WSW,241,8.0,12.0,66,0.00,,SKC,0.00,VWS V14.01,2013-02-22 21:10:00,
2013-02-22 16:15:00,81.7,69.7,29.97,WSW,250,7.0,12.0,67,0.00,,SKC,0.00,VWS V14.01,2013-02-22 21:15:00,
2013-02-22 16:20:00,81.6,69.6,29.97,SW,236,7.0,12.0,67,0.00,,SKC,0.00,VWS V14.01,2013-02-22 21:20:00,
2013-02-22 16:25:00,81.6,69.6,29.97,SSW,209,5.0,14.0,67,0.00,,SKC,0.00,VWS V14.01,2013-02-22 21:25:00,
2013-02-22 16:30:00,81.4,69.4,29.97,South,179,5.0,14.0,67,0.00,,SKC,0.00,VWS V14.01,2013-02-22 21:30:00,
2013-02-22 16:35:00,81.4,69.4,29.97,SW,217,6.0,12.0,67,0.00,,SKC,0.00,VWS V14.01,2013-02-22 21:35:00,
2013-02-22 16:40:00,81.1,69.6,29.96,SSW,209,9.0,13.0,68,0.00,,SKC,0.00,VWS V14.01,2013-02-22 21:40:00,
2013-02-22 16:45:00,80.9,69.4,29.97,SSW,205,5.0,13.0,68,0.00,,SKC,0.00,VWS V14.01,2013-02-22 21:45:00,
2013-02-22 16:50:00,80.8,69.7,29.97,SSW,196,6.0,13.0,69,0.00,,SKC,0.00,VWS V14.01,2013-02-22 21:50:00,
2013-02-22 16:55:00,80.8,69.7,29.97,SSW,210,12.0,13.0,69,0.00,,SKC,0.00,VWS V14.01,2013-02-22 21:55:00,
2013-02-22 17:00:00,80.9,69.4,29.97,SSW,209,8.0,13.0,68,0.00,,SKC,0.00,VWS V14.01,2013-02-22 22:00:00,
2013-02-22 17:05:00,80.7,69.2,29.97,SW,223,7.0,11.0,68,0.00,,SKC,0.00,VWS V14.01,2013-02-22 22:05:00,
2013-02-22 17:10:00,80.5,69.0,29.97,SW,226,8.0,11.0,68,0.00,,SKC,0.00,VWS V14.01,2013-02-22 22:10:00,
2013-02-22 17:15:00,80.2,69.1,29.97,SSW,210,9.0,12.0,69,0.00,,SKC,0.00,VWS V14.01,2013-02-22 22:15:00,
2013-02-22 17:20:00,79.9,69.2,29.98,SSE,148,6.0,12.0,70,0.00,,SKC,0.00,VWS V14.01,2013-02-22 22:20:00,
2013-02-22 17:25:00,79.9,69.2,29.98,SSW,200,9.0,12.0,70,0.00,,SKC,0.00,VWS V14.01,2013-02-22 22:25:00,
2013-02-22 17:30:00,79.9,69.2,29.98,SW,233,4.0,12.0,70,0.00,,SKC,0.00,VWS V14.01,2013-02-22 22:30:00,
2013-02-22 17:35:00,79.7,69.1,29.98,SSW,200,3.0,8.0,70,0.00,,SKC,0.00,VWS V14.01,2013-02-22 22:35:00,
2013-02-22 17:39:00,79.4,69.2,29.98,SW,226,4.0,8.0,71,0.00,,SKC,0.00,VWS V14.01,2013-02-22 22:39:00,
2013-02-22 17:44:00,79.1,69.3,29.98,South,185,5.0,8.0,72,0.00,,SKC,0.00,VWS V14.01,2013-02-22 22:44:00,
2013-02-22 17:50:00,78.7,69.3,29.98,South,175,7.0,11.0,73,0.00,,SKC,0.00,VWS V14.01,2013-02-22 22:50:00,
2013-02-22 17:55:00,78.2,69.2,29.98,SW,231,5.0,11.0,74,0.00,,SKC,0.00,VWS V14.01,2013-02-22 22:55:00,
2013-02-22 18:00:00,77.8,68.9,29.99,South,179,4.0,11.0,74,0.00,,SKC,0.00,VWS V14.01,2013-02-22 23:00:00,
2013-02-22 18:05:00,77.4,68.9,29.99,South,188,6.0,8.0,75,0.00,,SKC,0.00,VWS V14.01,2013-02-22 23:05:00,
2013-02-22 18:10:00,77.1,69.0,29.99,SSE,155,3.0,8.0,76,0.00,,SKC,0.00,VWS V14.01,2013-02-22 23:10:00,
2013-02-22 18:15:00,76.8,68.7,29.99,SSE,156,2.0,8.0,76,0.00,,SKC,0.00,VWS V14.01,2013-02-22 23:15:00,
2013-02-22 18:20:00,76.5,68.8,29.99,SSW,205,4.0,8.0,77,0.00,,SKC,0.00,VWS V14.01,2013-02-22 23:20:00,
2013-02-22 18:25:00,76.2,68.8,29.99,SSW,196,1.0,8.0,78,0.00,,SKC,0.00,VWS V14.01,2013-02-22 23:25:00,
2013-02-22 18:30:00,75.9,68.6,29.99,SSW,209,4.0,8.0,78,0.00,,SKC,0.00,VWS V14.01,2013-02-22 23:30:00,
2013-02-22 18:35:00,75.6,68.6,30.00,SW,219,1.0,7.0,79,0.00,,SKC,0.00,VWS V14.01,2013-02-22 23:35:00,
2013-02-22 18:40:00,75.4,68.8,30.00,South,182,0.0,7.0,80,0.00,,SKC,0.00,VWS V14.01,2013-02-22 23:40:00,
2013-02-22 18:45:00,75.2,68.6,30.00,SW,236,2.0,7.0,80,0.00,,SKC,0.00,VWS V14.01,2013-02-22 23:45:00,
2013-02-22 18:50:00,75.0,68.8,30.00,SSW,207,1.0,7.0,81,0.00,,SKC,0.00,VWS V14.01,2013-02-22 23:50:00,
2013-02-22 18:55:00,74.8,68.6,30.00,SSE,153,1.0,7.0,81,0.00,,SKC,0.00,VWS V14.01,2013-02-22 23:55:00,
2013-02-22 19:00:00,74.8,68.9,30.00,SSW,205,0.0,7.0,82,0.00,,SKC,0.00,VWS V14.01,2013-02-23 00:00:00,
2013-02-22 19:05:00,74.6,68.8,30.00,SSW,210,1.0,3.0,82,0.00,,SKC,0.00,VWS V14.01,2013-02-23 00:05:00,
2013-02-22 19:10:00,74.5,68.7,30.00,SSW,200,1.0,6.0,82,0.00,,SKC,0.00,VWS V14.01,2013-02-23 00:10:00,
2013-02-22 19:15:00,74.4,68.6,30.00,SW,218,0.0,6.0,82,0.00,,SKC,0.00,VWS V14.01,2013-02-23 00:15:00,
2013-02-22 19:20:00,74.2,68.7,30.00,SSW,192,0.0,6.0,83,0.00,,SKC,0.00,VWS V14.01,2013-02-23 00:20:00,
2013-02-22 19:25:00,74.1,68.6,30.00,SSE,157,2.0,6.0,83,0.00,,SKC,0.00,VWS V14.01,2013-02-23 00:25:00,
2013-02-22 19:30:00,74.0,68.5,30.01,SE,136,0.0,6.0,83,0.00,,SKC,0.00,VWS V14.01,2013-02-23 00:30:00,
2013-02-22 19:35:00,73.8,68.7,30.01,SE,141,0.0,2.0,84,0.00,,SKC,0.00,VWS V14.01,2013-02-23 00:35:00,
2013-02-22 19:40:00,73.7,68.6,30.01,SE,133,1.0,2.0,84,0.00,,SKC,0.00,VWS V14.01,2013-02-23 00:40:00,
2013-02-22 19:45:00,73.5,68.4,30.01,SE,145,1.0,2.0,84,0.00,,SKC,0.00,VWS V14.01,2013-02-23 00:45:00,
2013-02-22 19:50:00,73.5,68.4,30.02,SSE,148,0.0,2.0,84,0.00,,SKC,0.00,VWS V14.01,2013-02-23 00:50:00,
2013-02-22 19:55:00,73.3,68.5,30.02,SSE,161,0.0,2.0,85,0.00,,SKC,0.00,VWS V14.01,2013-02-23 00:55:00,
2013-02-22 20:00:00,73.2,68.4,30.02,SW,230,0.0,2.0,85,0.00,,SKC,0.00,VWS V14.01,2013-02-23 01:00:00,
2013-02-22 20:05:00,73.0,68.2,30.02,SSE,150,2.0,2.0,85,0.00,,SKC,0.00,VWS V14.01,2013-02-23 01:05:00,
2013-02-22 20:10:00,72.9,68.1,30.02,SSW,205,2.0,2.0,85,0.00,,SKC,0.00,VWS V14.01,2013-02-23 01:10:00,
2013-02-22 20:15:00,72.9,68.1,30.02,SSW,213,0.0,2.0,85,0.00,,SKC,0.00,VWS V14.01,2013-02-23 01:15:00,
2013-02-22 20:20:00,72.8,68.0,30.02,SSW,213,0.0,2.0,85,0.00,,SKC,0.00,VWS V14.01,2013-02-23 01:20:00,
2013-02-22 20:25:00,72.6,67.8,30.02,SSW,213,0.0,2.0,85,0.00,,SKC,0.00,VWS V14.01,2013-02-23 01:25:00,
2013-02-22 20:30:00,72.5,67.7,30.02,South,181,0.0,2.0,85,0.00,,SKC,0.00,VWS V14.01,2013-02-23 01:30:00,
2013-02-22 20:35:00,72.3,67.9,30.03,SSE,161,0.0,1.0,86,0.00,,SKC,0.00,VWS V14.01,2013-02-23 01:35:00,
2013-02-22 20:40:00,72.1,67.7,30.03,SSW,198,0.0,1.0,86,0.00,,SKC,0.00,VWS V14.01,2013-02-23 01:40:00,
2013-02-22 20:45:00,72.0,67.6,30.03,SSW,197,0.0,1.0,86,0.00,,SKC,0.00,VWS V14.01,2013-02-23 01:45:00,
2013-02-22 20:50:00,71.9,67.8,30.03,SSW,198,0.0,1.0,87,0.00,,SKC,0.00,VWS V14.01,2013-02-23 01:50:00,
2013-02-22 20:55:00,72.0,67.9,30.03,SSE,152,0.0,1.0,87,0.00,,SKC,0.00,VWS V14.01,2013-02-23 01:55:00,
2013-02-22 21:00:00,71.9,67.5,30.03,SSE,153,0.0,1.0,86,0.00,,SKC,0.00,VWS V14.01,2013-02-23 02:00:00,
2013-02-22 21:05:00,71.6,67.2,30.04,SSE,153,0.0,0.0,86,0.00,,SKC,0.00,VWS V14.01,2013-02-23 02:05:00,
2013-02-22 21:10:00,71.4,67.3,30.04,SSE,153,0.0,0.0,87,0.00,,SKC,0.00,VWS V14.01,2013-02-23 02:10:00,
2013-02-22 21:15:00,71.2,67.1,30.04,SSE,153,0.0,0.0,87,0.00,,SKC,0.00,VWS V14.01,2013-02-23 02:15:00,
2013-02-22 21:20:00,70.9,67.2,30.04,SSE,152,0.0,0.0,88,0.00,,SKC,0.00,VWS V14.01,2013-02-23 02:20:00,
2013-02-22 21:25:00,70.7,67.0,30.05,SSE,153,0.0,0.0,88,0.00,,SKC,0.00,VWS V14.01,2013-02-23 02:25:00,
2013-02-22 21:30:00,70.5,67.1,30.05,SSE,152,0.0,0.0,89,0.00,,SKC,0.00,VWS V14.01,2013-02-23 02:30:00,
2013-02-22 21:35:00,70.4,67.0,30.05,SSE,152,0.0,0.0,89,0.00,,SKC,0.00,VWS V14.01,2013-02-23 02:35:00,
2013-02-22 21:40:00,70.4,67.0,30.05,SSE,152,0.0,0.0,89,0.00,,SKC,0.00,VWS V14.01,2013-02-23 02:40:00,
2013-02-22 21:45:00,70.3,67.2,30.05,SSE,153,0.0,0.0,90,0.00,,SKC,0.00,VWS V14.01,2013-02-23 02:45:00,
2013-02-22 21:50:00,70.4,67.3,30.05,SSE,152,0.0,0.0,90,0.00,,SKC,0.00,VWS V14.01,2013-02-23 02:50:00,
2013-02-22 21:55:00,70.4,67.3,30.05,SSE,152,0.0,0.0,90,0.00,,SKC,0.00,VWS V14.01,2013-02-23 02:55:00,
2013-02-22 22:00:00,70.3,67.2,30.05,SSE,152,0.0,0.0,90,0.00,,SKC,0.00,VWS V14.01,2013-02-23 03:00:00,
2013-02-22 22:05:00,70.2,67.1,30.05,SSE,153,0.0,0.0,90,0.00,,SKC,0.00,VWS V14.01,2013-02-23 03:05:00,
2013-02-22 22:10:00,70.1,67.0,30.05,SSE,152,0.0,0.0,90,0.00,,SKC,0.00,VWS V14.01,2013-02-23 03:10:00,
2013-02-22 22:15:00,69.9,66.8,30.05,SSE,153,0.0,0.0,90,0.00,,SKC,0.00,VWS V14.01,2013-02-23 03:15:00,
2013-02-22 22:20:00,69.9,67.2,30.05,SSE,152,0.0,0.0,91,0.00,,SKC,0.00,VWS V14.01,2013-02-23 03:20:00,
2013-02-22 22:25:00,69.9,67.2,30.05,SE,133,1.0,1.0,91,0.00,,SKC,0.00,VWS V14.01,2013-02-23 03:25:00,
2013-02-22 22:30:00,69.8,67.1,30.05,SE,134,0.0,1.0,91,0.00,,SKC,0.00,VWS V14.01,2013-02-23 03:30:00,
2013-02-22 22:35:00,69.8,67.1,30.05,SE,133,0.0,1.0,91,0.00,,SKC,0.00,VWS V14.01,2013-02-23 03:35:00,
2013-02-22 22:40:00,69.8,67.1,30.05,ESE,123,0.0,1.0,91,0.00,,SKC,0.00,VWS V14.01,2013-02-23 03:40:00,
2013-02-22 22:45:00,69.7,67.0,30.05,ESE,120,0.0,1.0,91,0.00,,SKC,0.00,VWS V14.01,2013-02-23 03:45:00,
2013-02-22 22:50:00,69.7,67.0,30.04,ESE,120,0.0,1.0,91,0.00,,SKC,0.00,VWS V14.01,2013-02-23 03:50:00,
2013-02-22 22:55:00,69.7,67.0,30.04,ESE,104,0.0,2.0,91,0.00,,SKC,0.00,VWS V14.01,2013-02-23 03:55:00,
2013-02-22 23:00:00,69.7,67.0,30.04,ENE,78,1.0,4.0,91,0.00,,SKC,0.00,VWS V14.01,2013-02-23 04:00:00,
2013-02-22 23:05:00,69.8,67.1,30.04,East,87,0.0,1.0,91,0.00,,SKC,0.00,VWS V14.01,2013-02-23 04:05:00,
2013-02-22 23:10:00,69.7,67.0,30.04,ESE,107,0.0,1.0,91,0.00,,SKC,0.00,VWS V14.01,2013-02-23 04:10:00,
2013-02-22 23:15:00,69.7,67.0,30.04,SE,140,0.0,1.0,91,0.00,,SKC,0.00,VWS V14.01,2013-02-23 04:15:00,
2013-02-22 23:20:00,69.6,66.9,30.04,ESE,107,0.0,2.0,91,0.00,,SKC,0.00,VWS V14.01,2013-02-23 04:20:00,
2013-02-22 23:25:00,69.5,66.8,30.04,ESE,108,0.0,2.0,91,0.00,,SKC,0.00,VWS V14.01,2013-02-23 04:25:00,
2013-02-22 23:30:00,69.4,66.7,30.04,ESE,115,0.0,2.0,91,0.00,,SKC,0.00,VWS V14.01,2013-02-23 04:30:00,
2013-02-22 23:35:00,69.3,66.6,30.03,SE,124,0.0,1.0,91,0.00,,SKC,0.00,VWS V14.01,2013-02-23 04:35:00,
2013-02-22 23:40:00,69.2,66.8,30.03,SSE,155,1.0,4.0,92,0.00,,SKC,0.00,VWS V14.01,2013-02-23 04:40:00,
2013-02-22 23:45:00,69.2,66.8,30.03,SE,132,2.0,4.0,92,0.00,,SKC,0.00,VWS V14.01,2013-02-23 04:45:00,
2013-02-22 23:50:00,69.2,66.8,30.03,East,96,1.0,5.0,92,0.00,,SKC,0.00,VWS V14.01,2013-02-23 04:50:00,
2013-02-22 23:55:00,69.2,66.8,30.03,SE,138,2.0,5.0,92,0.00,,SKC,0.00,VWS V14.01,2013-02-23 04:55:00,